Time;durP1;ratioP1;P1;durP2;ratioP2;P2;SDS_P1;SDS_P2;PMS_P1;PMS_P2;Temp;Humidity;BMP_temperature;BMP_pressure;BME280_temperature;BME280_humidity;BME280_pressure;Samples;Min_cycle;Max_cycle;Signal;HPM_P1;HPM_P2
2023/07/30 00:00:27;;;;;;;;;;;;;;;24.86;59.64;96838.41;4235212;28;5689;-67
2023/07/30 00:02:30;;;;;;;;;;;;;;;24.86;59.90;96843.00;4235026;28;5642;-67
2023/07/30 00:04:33;;;;;;;;;;;;;;;24.84;59.58;96832.47;4235157;28;5766;-67
2023/07/30 00:06:36;;;;;;;;;;;;;;;24.84;59.71;96837.09;4235176;28;5717;-67
2023/07/30 00:08:39;;;;;;;;;;;;;;;24.84;59.70;96843.28;4232266;28;5191;-67
2023/07/30 00:10:41;;;;;;;;;;;;;;;24.85;59.74;96847.59;4224452;28;5760;-66
2023/07/30 00:12:44;;;;;;;;;;;;;;;24.85;59.75;96850.31;4229176;28;5658;-67
2023/07/30 00:14:47;;;;;;;;;;;;;;;24.86;59.77;96841.09;4228383;28;5143;-66
2023/07/30 00:16:51;;;;;;;;;;;;;;;24.85;59.89;96834.09;4226449;28;5697;-65
2023/07/30 00:18:54;;;;;;;;;;;;;;;24.83;60.02;96830.88;4227161;27;5639;-66
2023/07/30 00:20:57;;;;;;;;;;;;;;;24.83;59.75;96824.66;4234537;28;5666;-66
2023/07/30 00:23:00;;;;;;;;;;;;;;;24.83;59.83;96816.53;4233129;28;5726;-66
2023/07/30 00:25:03;;;;;;;;;;;;;;;24.83;59.69;96819.25;4225928;28;5646;-66
2023/07/30 00:27:07;;;;;;;;;;;;;;;24.82;59.89;96818.44;4233891;28;5762;-66
2023/07/30 00:29:10;;;;;;;;;;;;;;;24.81;59.88;96816.84;4234409;28;5654;-66
2023/07/30 00:31:13;;;;;;;;;;;;;;;24.80;59.76;96823.31;4232490;28;6526;-67
2023/07/30 00:33:17;;;;;;;;;;;;;;;24.79;59.65;96829.81;4233630;28;5608;-66
2023/07/30 00:35:22;;;;;;;;;;;;;;;24.80;59.79;96828.72;4228561;28;5864;-66
2023/07/30 00:37:25;;;;;;;;;;;;;;;24.80;59.68;96830.59;4227931;28;5098;-66
2023/07/30 00:39:27;;;;;;;;;;;;;;;24.81;59.55;96827.66;4228847;28;5721;-67
2023/07/30 00:41:30;;;;;;;;;;;;;;;24.81;59.77;96822.25;4230489;28;5638;-66
2023/07/30 00:43:33;;;;;;;;;;;;;;;24.80;59.70;96830.59;4224327;28;5684;-66
2023/07/30 00:45:37;;;;;;;;;;;;;;;24.79;59.27;96824.41;4228128;28;5736;-66
2023/07/30 00:47:40;;;;;;;;;;;;;;;24.79;59.41;96824.41;4228466;27;5857;-66
2023/07/30 00:49:44;;;;;;;;;;;;;;;24.80;59.53;96817.09;4230601;28;5662;-66
2023/07/30 00:51:47;;;;;;;;;;;;;;;24.80;59.69;96815.19;4227985;28;5831;-66
2023/07/30 00:53:50;;;;;;;;;;;;;;;24.80;59.30;96817.91;4229358;28;5765;-67
2023/07/30 00:55:53;;;;;;;;;;;;;;;24.80;59.47;96826.00;4234246;28;5646;-66
2023/07/30 00:57:56;;;;;;;;;;;;;;;24.80;59.59;96817.91;4234491;28;5634;-66
2023/07/30 01:00:00;;;;;;;;;;;;;;;24.80;59.45;96823.31;4234119;28;5638;-66
2023/07/30 01:02:05;;;;;;;;;;;;;;;24.82;59.36;96820.34;4234108;28;5654;-66
2023/07/30 01:04:08;;;;;;;;;;;;;;;24.81;59.37;96810.63;4233892;28;5068;-66
2023/07/30 01:06:12;;;;;;;;;;;;;;;24.82;59.28;96821.16;4234115;27;5747;-67
2023/07/30 01:08:15;;;;;;;;;;;;;;;24.81;59.30;96822.25;4234331;28;5096;-67
2023/07/30 01:10:19;;;;;;;;;;;;;;;24.80;59.57;96822.50;4234015;28;5650;-67
2023/07/30 01:12:22;;;;;;;;;;;;;;;24.80;59.40;96823.31;4231961;28;5879;-67
2023/07/30 01:14:26;;;;;;;;;;;;;;;24.81;59.36;96833.06;4232013;28;5624;-67
2023/07/30 01:16:29;;;;;;;;;;;;;;;24.81;59.52;96843.88;4233310;28;5658;-67
2023/07/30 01:18:32;;;;;;;;;;;;;;;24.80;59.41;96844.94;4233745;28;5725;-67
2023/07/30 01:20:35;;;;;;;;;;;;;;;24.80;59.76;96842.22;4234155;28;5817;-67
2023/07/30 01:22:39;;;;;;;;;;;;;;;24.78;59.67;96844.41;4234146;28;5650;-67
2023/07/30 01:24:43;;;;;;;;;;;;;;;24.79;59.62;96856.84;4234005;28;5638;-67
2023/07/30 01:26:51;;;;;;;;;;;;;;;24.79;59.55;96853.31;4230548;28;5662;-67
2023/07/30 01:28:55;;;;;;;;;;;;;;;24.79;59.57;96862.25;4232918;28;7778;-67
2023/07/30 01:31:01;;;;;;;;;;;;;;;24.78;59.86;96854.41;4233918;28;5612;-67
2023/07/30 01:33:06;;;;;;;;;;;;;;;24.75;59.89;96853.09;4228690;28;5844;-67
2023/07/30 01:35:10;;;;;;;;;;;;;;;24.73;59.63;96857.97;4226528;28;5725;-67
2023/07/30 01:37:14;;;;;;;;;;;;;;;24.70;59.93;96853.16;4233934;28;5624;-67
2023/07/30 01:39:19;;;;;;;;;;;;;;;24.67;59.88;96864.50;4233894;28;5636;-67
2023/07/30 01:41:22;;;;;;;;;;;;;;;24.64;60.15;96867.78;4233806;28;5842;-67
2023/07/30 01:43:25;;;;;;;;;;;;;;;24.61;60.22;96854.81;4233428;28;5640;-67
2023/07/30 01:45:28;;;;;;;;;;;;;;;24.59;59.92;96860.53;4228887;28;5754;-67
2023/07/30 01:47:30;;;;;;;;;;;;;;;24.58;60.12;96858.09;4233535;27;5800;-67
2023/07/30 01:49:33;;;;;;;;;;;;;;;24.57;60.32;96848.34;4233846;28;5657;-67
2023/07/30 01:51:36;;;;;;;;;;;;;;;24.55;60.45;96858.63;4233940;28;5636;-67
2023/07/30 01:53:40;;;;;;;;;;;;;;;24.53;60.64;96841.91;4225191;28;5639;-67
2023/07/30 01:55:45;;;;;;;;;;;;;;;24.53;60.36;96852.72;4231000;28;5600;-67
2023/07/30 01:57:48;;;;;;;;;;;;;;;24.52;60.57;96856.50;4234130;28;5142;-67
2023/07/30 01:59:51;;;;;;;;;;;;;;;24.51;60.59;96854.91;4237185;28;5720;-67
2023/07/30 02:01:53;;;;;;;;;;;;;;;24.49;60.21;96859.78;4231505;28;5758;-67
2023/07/30 02:03:56;;;;;;;;;;;;;;;24.47;60.55;96853.84;4236763;27;5778;-67
2023/07/30 02:05:59;;;;;;;;;;;;;;;24.46;60.61;96863.81;4236857;28;5751;-67
2023/07/30 02:08:02;;;;;;;;;;;;;;;24.45;60.43;96856.81;4236706;28;5721;-68
2023/07/30 02:10:06;;;;;;;;;;;;;;;24.47;60.36;96859.25;4231992;28;5665;-68
2023/07/30 02:12:11;;;;;;;;;;;;;;;24.48;60.66;96860.88;4230135;28;5636;-69
2023/07/30 02:14:14;;;;;;;;;;;;;;;24.46;60.60;96855.72;4234688;28;5712;-68
2023/07/30 02:16:17;;;;;;;;;;;;;;;24.46;60.56;96857.63;4230432;28;5631;-69
2023/07/30 02:18:19;;;;;;;;;;;;;;;24.44;60.56;96860.59;4233986;28;5095;-68
2023/07/30 02:20:22;;;;;;;;;;;;;;;24.43;60.33;96859.00;4236625;28;5663;-68
2023/07/30 02:22:26;;;;;;;;;;;;;;;24.43;60.49;96858.19;4236517;28;5646;-69
2023/07/30 02:24:28;;;;;;;;;;;;;;;24.42;60.80;96851.16;4235801;28;5861;-69
2023/07/30 02:26:31;;;;;;;;;;;;;;;24.41;60.44;96844.16;4233672;28;5740;-69
2023/07/30 02:28:36;;;;;;;;;;;;;;;24.39;60.80;96847.94;4235254;28;5638;-68
2023/07/30 02:30:38;;;;;;;;;;;;;;;24.39;60.99;96841.72;4233539;28;5642;-68
2023/07/30 02:32:42;;;;;;;;;;;;;;;24.38;60.57;96846.34;4236444;28;5700;-68
2023/07/30 02:34:45;;;;;;;;;;;;;;;24.38;60.71;96854.44;4232686;28;5849;-70
2023/07/30 02:36:48;;;;;;;;;;;;;;;24.37;60.98;96854.72;4236580;28;5646;-72
2023/07/30 02:38:52;;;;;;;;;;;;;;;24.37;60.68;96844.72;4236480;28;5913;-74
2023/07/30 02:40:55;;;;;;;;;;;;;;;24.36;61.09;96840.41;4236560;28;5670;-76
2023/07/30 02:42:58;;;;;;;;;;;;;;;24.37;60.70;96843.91;4236385;28;5635;-74
2023/07/30 02:45:02;;;;;;;;;;;;;;;24.36;60.59;96845.81;4236238;28;5731;-74
2023/07/30 02:47:06;;;;;;;;;;;;;;;24.35;61.12;96846.91;4228184;28;7795;-72
2023/07/30 02:49:09;;;;;;;;;;;;;;;24.36;61.05;96842.31;4236237;27;5665;-78
2023/07/30 02:51:12;;;;;;;;;;;;;;;24.37;60.74;96849.31;4236658;28;5645;-74
2023/07/30 02:53:15;;;;;;;;;;;;;;;24.36;60.97;96845.81;4230957;28;6343;-72
2023/07/30 02:55:18;;;;;;;;;;;;;;;24.36;61.05;96845.00;4236477;28;5653;-74
2023/07/30 02:57:20;;;;;;;;;;;;;;;24.37;60.61;96852.03;4236662;28;5704;-77
2023/07/30 02:59:23;;;;;;;;;;;;;;;24.36;61.05;96853.91;4236368;28;5650;-75
2023/07/30 03:01:27;;;;;;;;;;;;;;;24.35;61.10;96855.00;4236157;28;5754;-74
2023/07/30 03:03:30;;;;;;;;;;;;;;;24.36;61.22;96853.09;4235086;28;5695;-73
2023/07/30 03:05:33;;;;;;;;;;;;;;;24.35;60.99;96846.91;4235701;27;5705;-73
2023/07/30 03:07:36;;;;;;;;;;;;;;;24.36;60.94;96843.09;4236220;28;5724;-72
2023/07/30 03:09:39;;;;;;;;;;;;;;;24.37;61.43;96838.50;4230406;28;5646;-75
2023/07/30 03:11:41;;;;;;;;;;;;;;;24.39;61.27;96842.53;4236242;28;5821;-76
2023/07/30 03:13:44;;;;;;;;;;;;;;;24.38;61.04;96835.53;4236006;28;5654;-77
2023/07/30 03:15:47;;;;;;;;;;;;;;;24.40;61.17;96835.25;4235946;28;5703;-76
2023/07/30 03:17:51;;;;;;;;;;;;;;;24.38;61.35;96835.53;4235896;28;5752;-74
2023/07/30 03:19:54;;;;;;;;;;;;;;;24.38;61.18;96835.53;4236039;28;5773;-76
2023/07/30 03:21:57;;;;;;;;;;;;;;;24.39;61.06;96837.13;4235789;28;5740;-75
2023/07/30 03:24:00;;;;;;;;;;;;;;;24.39;61.47;96836.31;4235765;28;6367;-76
2023/07/30 03:26:03;;;;;;;;;;;;;;;24.37;61.61;96833.91;4222075;28;5747;-77
2023/07/30 03:28:06;;;;;;;;;;;;;;;24.39;61.37;96830.94;4234583;28;5745;-78
2023/07/30 03:30:10;;;;;;;;;;;;;;;24.37;61.49;96825.00;4227039;28;5889;-77
2023/07/30 03:32:13;;;;;;;;;;;;;;;24.36;61.35;96824.19;4227474;28;5822;-75
2023/07/30 03:34:17;;;;;;;;;;;;;;;24.36;61.44;96832.31;4231257;28;5658;-73
2023/07/30 03:36:20;;;;;;;;;;;;;;;24.36;61.51;96840.41;4235710;28;5635;-78
2023/07/30 03:38:22;;;;;;;;;;;;;;;24.36;61.30;96845.00;4235359;28;5645;-76
2023/07/30 03:40:25;;;;;;;;;;;;;;;24.36;60.94;96853.91;4233096;28;5789;-75
2023/07/30 03:42:28;;;;;;;;;;;;;;;24.35;61.54;96846.06;4221447;28;5795;-73
2023/07/30 03:44:30;;;;;;;;;;;;;;;24.34;61.31;96847.16;4221302;28;5755;-74
2023/07/30 03:46:32;;;;;;;;;;;;;;;24.35;61.10;96844.19;4224219;28;5670;-77
2023/07/30 03:48:36;;;;;;;;;;;;;;;24.36;61.38;96845.81;4226846;28;5609;-73
2023/07/30 03:50:40;;;;;;;;;;;;;;;24.34;61.44;96839.84;4222777;28;6802;-74
2023/07/30 03:52:43;;;;;;;;;;;;;;;24.35;61.54;96840.66;4222764;28;5840;-73
2023/07/30 03:54:45;;;;;;;;;;;;;;;24.32;61.43;96847.44;4224761;28;6463;-73
2023/07/30 03:56:48;;;;;;;;;;;;;;;24.31;61.31;96845.81;4221697;28;5638;-77
2023/07/30 03:58:51;;;;;;;;;;;;;;;24.32;61.41;96846.63;4220877;28;5753;-72
2023/07/30 04:00:54;;;;;;;;;;;;;;;24.32;61.64;96855.53;4222963;28;5822;-76
2023/07/30 04:02:57;;;;;;;;;;;;;;;24.32;61.58;96854.72;4223440;28;5151;-74
2023/07/30 04:05:00;;;;;;;;;;;;;;;24.31;61.44;96853.94;4222694;28;5799;-74
2023/07/30 04:07:04;;;;;;;;;;;;;;;24.31;61.71;96851.22;4221000;28;5656;-77
2023/07/30 04:09:08;;;;;;;;;;;;;;;24.29;61.21;96852.56;4221694;28;5856;-77
2023/07/30 04:11:09;;;;;;;;;;;;;;;24.31;61.67;96856.63;4226195;28;5844;-75
2023/07/30 04:13:32;;;;;;;;;;;;;;;24.30;61.37;96857.72;4224088;28;5729;-74
2023/07/30 04:15:51;;;;;;;;;;;;;;;24.28;61.36;96857.16;4226229;28;5745;-78
2023/07/30 04:17:55;;;;;;;;;;;;;;;24.28;61.80;96859.88;4226329;28;5793;-73
2023/07/30 04:19:57;;;;;;;;;;;;;;;24.29;61.64;96863.38;4226071;28;5650;-74
2023/07/30 04:22:00;;;;;;;;;;;;;;;24.31;61.32;96867.44;4222466;28;5808;-75
2023/07/30 04:24:05;;;;;;;;;;;;;;;24.30;61.49;96857.72;4223051;27;8570;-75
2023/07/30 04:26:08;;;;;;;;;;;;;;;24.30;61.38;96857.72;4225447;28;5674;-74
2023/07/30 04:28:10;;;;;;;;;;;;;;;24.28;61.85;96857.16;4221618;28;6744;-73
2023/07/30 04:30:13;;;;;;;;;;;;;;;24.28;61.52;96861.75;4224115;28;5646;-74
2023/07/30 04:32:16;;;;;;;;;;;;;;;24.27;61.66;96852.03;4221219;28;5745;-75
2023/07/30 04:34:19;;;;;;;;;;;;;;;24.27;61.86;96846.63;4221573;28;5825;-72
2023/07/30 04:36:21;;;;;;;;;;;;;;;24.26;62.06;96843.13;4222042;28;5798;-75
2023/07/30 04:38:24;;;;;;;;;;;;;;;24.28;61.95;96859.88;4223176;28;5646;-73
2023/07/30 04:40:29;;;;;;;;;;;;;;;24.27;62.01;96858.25;4224375;28;5684;-72
2023/07/30 04:42:32;;;;;;;;;;;;;;;24.27;61.71;96860.97;4224689;28;6340;-72
2023/07/30 04:44:34;;;;;;;;;;;;;;;24.27;61.60;96862.84;4234588;27;6339;-75
2023/07/30 04:46:37;;;;;;;;;;;;;;;24.29;61.71;96863.38;4234085;28;5646;-73
2023/07/30 04:48:42;;;;;;;;;;;;;;;24.30;62.02;96865.81;4234501;28;5638;-74
2023/07/30 04:50:45;;;;;;;;;;;;;;;24.32;61.68;96874.44;4231622;28;6684;-75
2023/07/30 04:52:47;;;;;;;;;;;;;;;24.32;61.78;96869.03;4232302;28;5662;-75
2023/07/30 04:54:51;;;;;;;;;;;;;;;24.32;61.72;96877.16;4233324;28;5700;-76
2023/07/30 04:56:55;;;;;;;;;;;;;;;24.32;62.09;96876.34;4234402;28;5877;-73
2023/07/30 04:58:57;;;;;;;;;;;;;;;24.32;62.16;96871.75;4234353;27;5627;-76
2023/07/30 05:01:00;;;;;;;;;;;;;;;24.33;62.09;96865.25;4234114;28;5738;-77
2023/07/30 05:03:04;;;;;;;;;;;;;;;24.33;62.30;96869.84;4217309;28;5659;-75
2023/07/30 05:05:07;;;;;;;;;;;;;;;24.32;61.95;96869.03;4226499;28;5642;-72
2023/07/30 05:07:10;;;;;;;;;;;;;;;24.30;61.91;96871.22;4234165;27;5630;-75
2023/07/30 05:09:13;;;;;;;;;;;;;;;24.27;61.90;96863.66;4227552;28;5597;-77
2023/07/30 05:11:16;;;;;;;;;;;;;;;24.24;61.95;96858.81;4234082;28;5617;-75
2023/07/30 05:13:20;;;;;;;;;;;;;;;24.24;61.72;96850.72;4234283;28;5658;-76
2023/07/30 05:15:23;;;;;;;;;;;;;;;24.23;62.18;96854.47;4233854;28;5709;-73
2023/07/30 05:17:26;;;;;;;;;;;;;;;24.25;62.00;96852.31;4233920;28;5650;-76
2023/07/30 05:19:28;;;;;;;;;;;;;;;24.26;61.71;96861.25;4234220;28;5801;-76
2023/07/30 05:21:31;;;;;;;;;;;;;;;24.24;61.91;96866.13;4225938;28;5736;-76
2023/07/30 05:23:34;;;;;;;;;;;;;;;24.21;62.10;96862.06;4233927;28;5745;-72
2023/07/30 05:25:37;;;;;;;;;;;;;;;24.20;62.19;96865.03;4228245;28;5725;-72
2023/07/30 05:27:40;;;;;;;;;;;;;;;24.19;61.89;96858.84;4233997;28;5673;-73
2023/07/30 05:29:44;;;;;;;;;;;;;;;24.19;61.69;96869.63;4234107;28;5749;-73
2023/07/30 05:31:50;;;;;;;;;;;;;;;24.19;62.12;96858.84;4234612;28;5703;-74
2023/07/30 05:33:52;;;;;;;;;;;;;;;24.20;61.92;96859.63;4237153;28;5646;-77
2023/07/30 05:35:55;;;;;;;;;;;;;;;24.21;61.92;96866.66;4237463;28;5673;-74
2023/07/30 05:37:57;;;;;;;;;;;;;;;24.22;62.08;96866.38;4237660;28;5699;-77
2023/07/30 05:40:00;;;;;;;;;;;;;;;24.23;61.79;96870.69;4237060;28;5650;-76
2023/07/30 05:42:03;;;;;;;;;;;;;;;24.25;61.91;96876.63;4236625;28;5218;-71
2023/07/30 05:44:06;;;;;;;;;;;;;;;24.27;62.27;96873.66;4236419;28;5712;-73
2023/07/30 05:46:10;;;;;;;;;;;;;;;24.28;61.88;96883.38;4231812;27;5760;-76
2023/07/30 05:48:13;;;;;;;;;;;;;;;24.28;62.03;96886.88;4235826;28;6802;-76
2023/07/30 05:50:16;;;;;;;;;;;;;;;24.27;62.00;96881.75;4237266;28;5828;-75
2023/07/30 05:52:19;;;;;;;;;;;;;;;24.27;62.05;96882.56;4237411;28;5665;-75
2023/07/30 05:54:22;;;;;;;;;;;;;;;24.25;62.17;96884.75;4237407;28;6432;-78
2023/07/30 05:56:25;;;;;;;;;;;;;;;24.27;62.41;96893.38;4236869;28;5766;-78
2023/07/30 05:58:28;;;;;;;;;;;;;;;24.26;62.19;96899.88;4236683;28;5659;-76
2023/07/30 06:00:31;;;;;;;;;;;;;;;24.25;62.41;96903.66;4233039;28;5665;-76
2023/07/30 06:02:35;;;;;;;;;;;;;;;24.25;62.09;96906.34;4237076;28;5657;-72
2023/07/30 06:04:38;;;;;;;;;;;;;;;24.25;62.45;96909.06;4237090;27;5666;-76
2023/07/30 06:06:41;;;;;;;;;;;;;;;24.24;62.18;96915.53;4236913;28;5638;-77
2023/07/30 06:08:43;;;;;;;;;;;;;;;24.25;62.16;96911.75;4237092;28;5733;-75
2023/07/30 06:10:46;;;;;;;;;;;;;;;24.25;62.25;96919.84;4237143;28;6353;-74
2023/07/30 06:12:49;;;;;;;;;;;;;;;24.25;62.44;96921.75;4237066;28;5634;-74
2023/07/30 06:14:55;;;;;;;;;;;;;;;24.24;62.53;96922.84;4236974;27;5839;-78
2023/07/30 06:16:58;;;;;;;;;;;;;;;24.24;62.46;96931.75;4231626;28;5658;-73
2023/07/30 06:19:02;;;;;;;;;;;;;;;24.25;62.48;96933.38;4236636;28;7374;-74
2023/07/30 06:21:13;;;;;;;;;;;;;;;24.24;62.11;96934.44;4229927;28;5766;-75
2023/07/30 06:23:19;;;;;;;;;;;;;;;24.24;62.46;96945.25;4236901;28;5673;-77
2023/07/30 06:25:22;;;;;;;;;;;;;;;24.23;62.15;96946.31;4233808;28;6385;-71
2023/07/30 06:27:25;;;;;;;;;;;;;;;24.22;62.36;96943.91;4223453;28;5475;-78
2023/07/30 06:29:28;;;;;;;;;;;;;;;24.21;62.39;96939.59;4236669;28;5801;-76
2023/07/30 06:31:32;;;;;;;;;;;;;;;24.20;62.46;96940.66;4236772;28;6493;-70
2023/07/30 06:33:35;;;;;;;;;;;;;;;24.20;62.42;96937.97;4231192;28;5670;-70
2023/07/30 06:35:40;;;;;;;;;;;;;;;24.20;62.36;96935.25;4236946;28;5650;-76
2023/07/30 06:37:42;;;;;;;;;;;;;;;24.19;62.37;96939.06;4236717;28;5621;-68
2023/07/30 06:39:47;;;;;;;;;;;;;;;24.18;62.28;96943.66;4236487;28;5761;-72
2023/07/30 06:41:50;;;;;;;;;;;;;;;24.16;62.44;96945.81;4236477;28;5752;-74
2023/07/30 06:43:53;;;;;;;;;;;;;;;24.15;62.57;96952.31;4235986;28;5649;-67
2023/07/30 06:45:56;;;;;;;;;;;;;;;24.14;62.27;96956.09;4236180;27;5524;-70
2023/07/30 06:47:59;;;;;;;;;;;;;;;24.17;62.06;96955.53;4236063;28;7809;-68
2023/07/30 06:50:03;;;;;;;;;;;;;;;24.21;62.43;96969.28;4229934;28;5663;-69
2023/07/30 06:52:08;;;;;;;;;;;;;;;24.23;62.38;96967.13;4234280;28;5690;-78
2023/07/30 06:54:11;;;;;;;;;;;;;;;24.25;62.17;96970.38;4236240;28;5777;-69
2023/07/30 06:56:13;;;;;;;;;;;;;;;24.23;62.19;96962.53;4236241;28;5643;-71
2023/07/30 06:58:16;;;;;;;;;;;;;;;24.23;62.25;96961.72;4235981;28;5901;-71
2023/07/30 07:00:21;;;;;;;;;;;;;;;24.25;62.20;96960.38;4236339;28;5646;-76
2023/07/30 07:02:25;;;;;;;;;;;;;;;24.29;61.69;96958.72;4236265;28;5691;-71
2023/07/30 07:04:28;;;;;;;;;;;;;;;24.30;62.09;96965.78;4236306;28;5650;-70
2023/07/30 07:06:32;;;;;;;;;;;;;;;24.31;61.77;96972.78;4234817;28;5684;-68
2023/07/30 07:08:36;;;;;;;;;;;;;;;24.31;61.79;96975.50;4225034;28;5622;-77
2023/07/30 07:10:39;;;;;;;;;;;;;;;24.30;61.86;96965.78;4236179;28;5706;-70
2023/07/30 07:12:41;;;;;;;;;;;;;;;24.30;62.03;96963.06;4236538;28;5620;-74
2023/07/30 07:14:44;;;;;;;;;;;;;;;24.32;61.84;96960.91;4236175;27;5825;-72
2023/07/30 07:16:48;;;;;;;;;;;;;;;24.32;61.54;96950.09;4235892;27;5743;-76
2023/07/30 07:18:52;;;;;;;;;;;;;;;24.32;61.58;96955.50;4235883;28;5758;-68
2023/07/30 07:20:54;;;;;;;;;;;;;;;24.33;61.82;96962.50;4236196;28;5657;-69
2023/07/30 07:22:57;;;;;;;;;;;;;;;24.35;61.44;96960.38;4235906;28;5729;-76
2023/07/30 07:25:01;;;;;;;;;;;;;;;24.36;61.42;96956.59;4230472;28;5642;-76
2023/07/30 07:27:05;;;;;;;;;;;;;;;24.36;61.17;96961.97;4235490;28;5650;-72
2023/07/30 07:29:08;;;;;;;;;;;;;;;24.37;61.20;96963.59;4235634;28;5634;-71
2023/07/30 07:31:11;;;;;;;;;;;;;;;24.36;61.49;96961.97;4235880;28;5646;-73
2023/07/30 07:33:14;;;;;;;;;;;;;;;24.37;61.09;96968.19;4235666;27;5670;-74
2023/07/30 07:35:17;;;;;;;;;;;;;;;24.37;61.11;96965.50;4235879;28;5757;-75
2023/07/30 07:37:20;;;;;;;;;;;;;;;24.37;60.97;96974.41;4235857;28;5666;-70
2023/07/30 07:39:23;;;;;;;;;;;;;;;24.39;60.89;96972.22;4235598;28;5661;-72
2023/07/30 07:41:27;;;;;;;;;;;;;;;24.39;61.06;96974.94;4230165;28;5817;-70
2023/07/30 07:43:30;;;;;;;;;;;;;;;24.38;60.67;96970.63;4235574;28;5695;-74
2023/07/30 07:45:33;;;;;;;;;;;;;;;24.38;60.96;96969.81;4234093;28;5784;-67
2023/07/30 07:47:36;;;;;;;;;;;;;;;24.40;61.05;96978.44;4227202;27;5790;-70
2023/07/30 07:49:39;;;;;;;;;;;;;;;24.41;60.60;96987.34;4231361;28;5702;-73
2023/07/30 07:51:41;;;;;;;;;;;;;;;24.42;60.70;96978.97;4233496;28;5767;-72
2023/07/30 07:53:44;;;;;;;;;;;;;;;24.40;60.68;96970.34;4233350;28;5642;-74
2023/07/30 07:55:48;;;;;;;;;;;;;;;24.40;60.59;96973.03;4229498;28;5724;-67
2023/07/30 07:57:52;;;;;;;;;;;;;;;24.39;60.63;96974.94;4224771;28;5707;-72
2023/07/30 07:59:54;;;;;;;;;;;;;;;24.43;60.12;96982.47;4228665;28;5666;-74
2023/07/30 08:01:57;;;;;;;;;;;;;;;24.43;59.90;96980.59;4226178;28;5705;-73
2023/07/30 08:04:00;;;;;;;;;;;;;;;24.45;60.10;96977.59;4225474;28;5986;-74
2023/07/30 08:06:03;;;;;;;;;;;;;;;24.45;59.84;96975.69;4229918;28;5657;-71
2023/07/30 08:08:06;;;;;;;;;;;;;;;24.44;59.94;96979.50;4235572;28;5868;-73
2023/07/30 08:10:09;;;;;;;;;;;;;;;24.44;59.85;96973.28;4235104;28;5822;-77
2023/07/30 08:12:12;;;;;;;;;;;;;;;24.41;59.49;96969.25;4235165;28;5631;-73
2023/07/30 08:14:15;;;;;;;;;;;;;;;24.42;59.45;96970.06;4235332;28;5646;-73
2023/07/30 08:16:19;;;;;;;;;;;;;;;24.42;59.36;96970.06;4235088;28;5650;-71
2023/07/30 08:18:21;;;;;;;;;;;;;;;24.44;59.48;96967.88;4234984;28;5732;-73
2023/07/30 08:20:23;;;;;;;;;;;;;;;24.46;59.67;96968.41;4227930;28;5751;-72
2023/07/30 08:22:26;;;;;;;;;;;;;;;24.46;59.04;96969.22;4229290;28;5789;-73
2023/07/30 08:24:29;;;;;;;;;;;;;;;24.46;59.38;96965.69;4234224;28;5672;-75
2023/07/30 08:26:33;;;;;;;;;;;;;;;24.46;59.32;96965.69;4224452;28;5813;-71
2023/07/30 08:28:36;;;;;;;;;;;;;;;24.48;58.78;96971.66;4228949;28;5642;-70
2023/07/30 08:30:40;;;;;;;;;;;;;;;24.50;59.18;96978.41;4231059;28;5724;-75
2023/07/30 08:32:44;;;;;;;;;;;;;;;24.52;59.23;96975.41;4233995;28;5646;-71
2023/07/30 08:34:47;;;;;;;;;;;;;;;24.53;58.79;96974.31;4234435;28;5661;-71
2023/07/30 08:36:50;;;;;;;;;;;;;;;24.54;58.99;96973.25;4235282;27;5788;-74
2023/07/30 08:38:53;;;;;;;;;;;;;;;24.56;58.92;96979.16;4227122;28;5733;-75
2023/07/30 08:40:56;;;;;;;;;;;;;;;24.58;58.76;96977.03;4234854;28;5666;-73
2023/07/30 08:42:59;;;;;;;;;;;;;;;24.59;58.59;96975.94;4235091;28;5634;-71
2023/07/30 08:45:06;;;;;;;;;;;;;;;24.58;58.89;96980.53;4232649;28;5751;-71
2023/07/30 08:47:10;;;;;;;;;;;;;;;24.60;58.87;96967.53;4232244;28;5670;-77
2023/07/30 08:49:13;;;;;;;;;;;;;;;24.62;58.50;96980.78;4234915;28;5626;-77
2023/07/30 08:51:17;;;;;;;;;;;;;;;24.64;58.63;96970.47;4234845;28;5650;-78
2023/07/30 08:53:19;;;;;;;;;;;;;;;24.64;58.90;96982.09;4234925;28;5718;-77
2023/07/30 08:55:23;;;;;;;;;;;;;;;24.68;58.53;96976.94;4234596;28;5205;-76
2023/07/30 08:57:28;;;;;;;;;;;;;;;24.69;58.50;96975.88;4234860;28;5642;-77
2023/07/30 08:59:38;;;;;;;;;;;;;;;24.70;58.46;96972.09;4234840;28;5833;-78
2023/07/30 09:01:42;;;;;;;;;;;;;;;24.73;58.45;96965.31;4235129;27;5785;-78
2023/07/30 09:03:49;;;;;;;;;;;;;;;24.74;58.39;96969.63;4234206;28;5721;-77
2023/07/30 09:05:52;;;;;;;;;;;;;;;24.72;58.62;96967.19;4234719;28;5079;-78
2023/07/30 09:07:54;;;;;;;;;;;;;;;24.73;58.57;96960.72;4231383;28;5667;-77
2023/07/30 09:09:57;;;;;;;;;;;;;;;24.76;58.40;96967.44;4233534;28;6369;-76
2023/07/30 09:12:01;;;;;;;;;;;;;;;24.76;58.45;96962.84;4234595;28;5757;-77
2023/07/30 09:14:06;;;;;;;;;;;;;;;24.77;58.61;96963.66;4234389;28;5729;-78
2023/07/30 09:16:11;;;;;;;;;;;;;;;24.76;58.22;96968.25;4234617;28;5646;-76
2023/07/30 09:18:17;;;;;;;;;;;;;;;24.78;58.72;96967.97;4232859;28;5808;-76
2023/07/30 09:20:22;;;;;;;;;;;;;;;24.78;58.52;96966.06;4234835;28;5642;-76
2023/07/30 09:22:28;;;;;;;;;;;;;;;24.76;58.45;96965.53;4232927;28;5739;-76
2023/07/30 09:24:31;;;;;;;;;;;;;;;24.77;58.14;96975.28;4230490;28;5802;-76
2023/07/30 09:26:43;;;;;;;;;;;;;;;24.78;58.36;96967.97;4232502;27;5849;-76
2023/07/30 09:28:47;;;;;;;;;;;;;;;24.80;58.47;96976.59;4233814;28;5119;-77
2023/07/30 09:30:51;;;;;;;;;;;;;;;24.81;57.94;96978.25;4233280;28;5708;-77
2023/07/30 09:32:55;;;;;;;;;;;;;;;24.83;58.15;96979.56;4233446;28;5911;-75
2023/07/30 09:35:06;;;;;;;;;;;;;;;24.84;58.09;96978.47;4228994;28;5120;-77
2023/07/30 09:37:10;;;;;;;;;;;;;;;24.85;58.19;96980.09;4223418;27;5642;-76
2023/07/30 09:39:18;;;;;;;;;;;;;;;24.86;57.70;96975.50;4233248;27;5682;-77
2023/07/30 09:41:21;;;;;;;;;;;;;;;24.87;57.62;96975.22;4222554;28;5848;-77
2023/07/30 09:43:30;;;;;;;;;;;;;;;24.87;57.63;96977.91;4229776;27;5769;-77
2023/07/30 09:45:35;;;;;;;;;;;;;;;24.89;57.39;96991.16;4227013;28;5662;-76
2023/07/30 09:47:37;;;;;;;;;;;;;;;24.89;57.29;96989.25;4232632;28;5127;-77
2023/07/30 09:49:40;;;;;;;;;;;;;;;24.89;57.21;96985.75;4231943;27;5745;-77
2023/07/30 09:51:42;;;;;;;;;;;;;;;24.88;57.02;96978.72;4230695;28;5830;-76
2023/07/30 09:53:47;;;;;;;;;;;;;;;24.89;57.01;96985.75;4233296;28;5706;-78
2023/07/30 09:55:50;;;;;;;;;;;;;;;24.89;56.56;96980.34;4232875;28;5749;-78
2023/07/30 09:57:52;;;;;;;;;;;;;;;24.91;56.32;96981.66;4221914;27;7722;-77
2023/07/30 09:59:54;;;;;;;;;;;;;;;24.93;56.26;96979.50;4231403;28;5814;-77
2023/07/30 10:01:59;;;;;;;;;;;;;;;24.96;55.93;96992.47;4231883;28;5681;-77
2023/07/30 10:04:07;;;;;;;;;;;;;;;24.97;56.03;96993.28;4227430;27;5866;-77
2023/07/30 10:06:12;;;;;;;;;;;;;;;24.98;55.93;96993.00;4225707;28;5642;-77
2023/07/30 10:08:20;;;;;;;;;;;;;;;25.00;55.39;96997.31;4219226;28;5994;-78
2023/07/30 10:10:27;;;;;;;;;;;;;;;25.00;55.17;96984.59;4217769;28;5677;-78
2023/07/30 10:12:33;;;;;;;;;;;;;;;25.02;55.07;96990.56;4228115;28;5734;-77
2023/07/30 10:14:36;;;;;;;;;;;;;;;25.03;54.94;96983.25;4232033;28;5654;-79
2023/07/30 10:16:39;;;;;;;;;;;;;;;25.05;54.88;96991.91;4228067;27;5789;-75
2023/07/30 10:18:44;;;;;;;;;;;;;;;25.05;54.86;96995.44;4219707;28;6520;-86
2023/07/30 10:20:53;;;;;;;;;;;;;;;25.07;54.34;96989.72;4228980;27;5675;-79
2023/07/30 10:22:57;;;;;;;;;;;;;;;25.08;54.23;96992.16;4217599;27;5878;-77
2023/07/30 10:25:03;;;;;;;;;;;;;;;25.09;54.43;96987.53;4232108;28;5766;-77
2023/07/30 10:27:09;;;;;;;;;;;;;;;25.11;54.12;96990.78;4223526;27;5691;-79
2023/07/30 10:29:17;;;;;;;;;;;;;;;25.13;53.68;97002.13;4229549;28;5650;-76
2023/07/30 10:31:19;;;;;;;;;;;;;;;25.13;54.02;96991.28;4225761;28;5663;-82
2023/07/30 10:33:22;;;;;;;;;;;;;;;25.14;53.54;96998.31;4232066;28;5813;-70
2023/07/30 10:35:42;;;;;;;;;;;;;;;25.15;53.72;96999.97;4231890;28;5609;-76
2023/07/30 10:37:47;;;;;;;;;;;;;;;25.15;53.51;96994.56;4231464;27;5796;-79
2023/07/30 10:39:51;;;;;;;;;;;;;;;25.16;53.37;96993.47;4229233;28;5778;-77
2023/07/30 10:41:57;;;;;;;;;;;;;;;25.17;53.10;97000.47;4225938;28;5649;-78
2023/07/30 10:44:06;;;;;;;;;;;;;;;25.18;52.87;96994.78;4230488;28;6360;-75
2023/07/30 10:46:13;;;;;;;;;;;;;;;25.21;52.40;97001.53;4227595;28;6482;-77
2023/07/30 10:48:14;;;;;;;;;;;;;;;25.22;52.36;97003.13;4229516;28;7361;-69
2023/07/30 10:50:17;;;;;;;;;;;;;;;25.22;52.30;97003.13;4234690;28;5651;-73
2023/07/30 10:52:26;;;;;;;;;;;;;;;25.22;51.79;96995.03;4225203;27;5796;-74